sensor_id;sensor_type;location;lat;lon;timestamp;P1;durP1;ratioP1;P2;durP2;ratioP2
21624;SDS011;10974;51.034;3.744;2023-07-29T03:39:06;1.73;;;1.50;;
21624;SDS011;10974;51.034;3.744;2023-07-29T03:41:32;5.43;;;1.63;;
21624;SDS011;10974;51.034;3.744;2023-07-29T03:43:58;1.20;;;1.10;;
21624;SDS011;10974;51.034;3.744;2023-07-29T03:46:24;1.57;;;1.43;;
21624;SDS011;10974;51.034;3.744;2023-07-29T03:48:50;1.40;;;1.30;;
21624;SDS011;10974;51.034;3.744;2023-07-29T03:51:16;2.20;;;1.40;;
21624;SDS011;10974;51.034;3.744;2023-07-29T03:53:43;1.90;;;1.60;;
21624;SDS011;10974;51.034;3.744;2023-07-29T03:56:09;3.23;;;1.60;;
21624;SDS011;10974;51.034;3.744;2023-07-29T03:58:35;1.93;;;1.53;;
21624;SDS011;10974;51.034;3.744;2023-07-29T04:01:01;2.33;;;1.37;;
21624;SDS011;10974;51.034;3.744;2023-07-29T04:03:29;1.27;;;1.10;;
21624;SDS011;10974;51.034;3.744;2023-07-29T04:05:55;4.20;;;1.90;;
21624;SDS011;10974;51.034;3.744;2023-07-29T04:08:21;3.40;;;1.90;;
21624;SDS011;10974;51.034;3.744;2023-07-29T04:10:47;1.60;;;1.50;;
21624;SDS011;10974;51.034;3.744;2023-07-29T04:13:14;1.30;;;1.20;;
21624;SDS011;10974;51.034;3.744;2023-07-29T04:15:40;1.60;;;1.50;;
21624;SDS011;10974;51.034;3.744;2023-07-29T04:18:06;4.00;;;1.47;;
21624;SDS011;10974;51.034;3.744;2023-07-29T04:20:32;1.40;;;1.30;;
21624;SDS011;10974;51.034;3.744;2023-07-29T04:22:58;1.80;;;1.70;;
21624;SDS011;10974;51.034;3.744;2023-07-29T04:25:24;2.00;;;1.50;;
21624;SDS011;10974;51.034;3.744;2023-07-29T04:27:51;2.10;;;1.60;;
21624;SDS011;10974;51.034;3.744;2023-07-29T04:30:17;1.60;;;1.50;;
21624;SDS011;10974;51.034;3.744;2023-07-29T04:32:43;1.43;;;1.30;;
21624;SDS011;10974;51.034;3.744;2023-07-29T04:35:09;2.47;;;1.77;;
21624;SDS011;10974;51.034;3.744;2023-07-29T04:37:35;1.40;;;1.30;;
21624;SDS011;10974;51.034;3.744;2023-07-29T04:40:02;2.13;;;1.40;;
21624;SDS011;10974;51.034;3.744;2023-07-29T04:42:28;1.60;;;1.50;;
21624;SDS011;10974;51.034;3.744;2023-07-29T04:44:54;1.40;;;1.30;;
21624;SDS011;10974;51.034;3.744;2023-07-29T04:47:20;1.60;;;1.40;;
21624;SDS011;10974;51.034;3.744;2023-07-29T04:49:46;1.70;;;1.60;;
21624;SDS011;10974;51.034;3.744;2023-07-29T04:52:12;1.80;;;1.50;;
21624;SDS011;10974;51.034;3.744;2023-07-29T04:54:38;1.43;;;1.33;;
21624;SDS011;10974;51.034;3.744;2023-07-29T04:57:04;1.20;;;1.10;;
21624;SDS011;10974;51.034;3.744;2023-07-29T04:59:30;1.40;;;1.30;;
21624;SDS011;10974;51.034;3.744;2023-07-29T05:01:56;1.87;;;1.30;;
21624;SDS011;10974;51.034;3.744;2023-07-29T05:04:22;2.00;;;1.50;;
21624;SDS011;10974;51.034;3.744;2023-07-29T05:06:48;1.30;;;1.20;;
21624;SDS011;10974;51.034;3.744;2023-07-29T05:09:16;1.20;;;1.10;;
21624;SDS011;10974;51.034;3.744;2023-07-29T05:11:46;1.20;;;1.10;;
21624;SDS011;10974;51.034;3.744;2023-07-29T05:14:14;1.43;;;1.33;;
21624;SDS011;10974;51.034;3.744;2023-07-29T05:16:40;1.30;;;1.20;;
21624;SDS011;10974;51.034;3.744;2023-07-29T05:19:06;1.50;;;1.40;;
21624;SDS011;10974;51.034;3.744;2023-07-29T05:21:32;1.40;;;1.27;;
21624;SDS011;10974;51.034;3.744;2023-07-29T05:23:58;1.73;;;1.20;;
21624;SDS011;10974;51.034;3.744;2023-07-29T05:26:24;1.87;;;1.50;;
21624;SDS011;10974;51.034;3.744;2023-07-29T05:28:50;2.70;;;1.60;;
21624;SDS011;10974;51.034;3.744;2023-07-29T05:31:16;1.47;;;1.37;;
21624;SDS011;10974;51.034;3.744;2023-07-29T05:33:43;1.37;;;1.20;;
21624;SDS011;10974;51.034;3.744;2023-07-29T05:36:09;1.53;;;1.43;;
21624;SDS011;10974;51.034;3.744;2023-07-29T05:38:35;3.00;;;1.67;;
21624;SDS011;10974;51.034;3.744;2023-07-29T05:41:01;2.70;;;1.57;;
21624;SDS011;10974;51.034;3.744;2023-07-29T05:43:27;1.37;;;1.23;;
21624;SDS011;10974;51.034;3.744;2023-07-29T05:45:53;4.20;;;1.90;;
21624;SDS011;10974;51.034;3.744;2023-07-29T05:48:19;2.07;;;1.53;;
21624;SDS011;10974;51.034;3.744;2023-07-29T05:50:45;2.13;;;1.20;;
21624;SDS011;10974;51.034;3.744;2023-07-29T05:53:11;2.30;;;1.37;;
21624;SDS011;10974;51.034;3.744;2023-07-29T05:55:37;1.50;;;1.40;;
21624;SDS011;10974;51.034;3.744;2023-07-29T05:58:03;1.47;;;1.10;;
21624;SDS011;10974;51.034;3.744;2023-07-29T06:00:29;3.10;;;1.50;;
21624;SDS011;10974;51.034;3.744;2023-07-29T06:02:55;2.93;;;1.70;;
21624;SDS011;10974;51.034;3.744;2023-07-29T06:05:21;1.43;;;1.33;;
21624;SDS011;10974;51.034;3.744;2023-07-29T06:07:48;1.63;;;1.27;;
21624;SDS011;10974;51.034;3.744;2023-07-29T06:10:14;1.30;;;1.20;;
21624;SDS011;10974;51.034;3.744;2023-07-29T06:12:44;2.90;;;1.43;;
21624;SDS011;10974;51.034;3.744;2023-07-29T06:15:10;1.40;;;1.30;;
21624;SDS011;10974;51.034;3.744;2023-07-29T06:17:37;1.60;;;1.40;;
21624;SDS011;10974;51.034;3.744;2023-07-29T06:20:03;4.90;;;1.40;;
21624;SDS011;10974;51.034;3.744;2023-07-29T06:22:29;1.57;;;1.40;;
21624;SDS011;10974;51.034;3.744;2023-07-29T06:24:55;1.90;;;1.48;;
21624;SDS011;10974;51.034;3.744;2023-07-29T06:27:21;3.83;;;1.50;;
21624;SDS011;10974;51.034;3.744;2023-07-29T06:29:47;1.37;;;1.27;;
21624;SDS011;10974;51.034;3.744;2023-07-29T06:32:13;1.83;;;1.40;;
21624;SDS011;10974;51.034;3.744;2023-07-29T06:34:39;3.10;;;1.60;;
21624;SDS011;10974;51.034;3.744;2023-07-29T06:37:05;1.80;;;1.40;;
21624;SDS011;10974;51.034;3.744;2023-07-29T06:39:32;2.70;;;1.57;;
21624;SDS011;10974;51.034;3.744;2023-07-29T06:41:58;3.17;;;1.50;;
21624;SDS011;10974;51.034;3.744;2023-07-29T06:44:24;1.53;;;1.43;;
21624;SDS011;10974;51.034;3.744;2023-07-29T06:46:50;6.07;;;1.60;;
21624;SDS011;10974;51.034;3.744;2023-07-29T06:49:16;2.20;;;1.60;;
21624;SDS011;10974;51.034;3.744;2023-07-29T06:51:42;4.20;;;1.40;;
21624;SDS011;10974;51.034;3.744;2023-07-29T06:54:08;1.53;;;1.30;;
21624;SDS011;10974;51.034;3.744;2023-07-29T06:56:34;1.53;;;1.37;;
21624;SDS011;10974;51.034;3.744;2023-07-29T06:59:00;1.83;;;1.57;;
21624;SDS011;10974;51.034;3.744;2023-07-29T07:01:26;3.20;;;1.90;;
21624;SDS011;10974;51.034;3.744;2023-07-29T07:03:52;7.20;;;2.33;;
21624;SDS011;10974;51.034;3.744;2023-07-29T07:06:20;2.10;;;1.90;;
21624;SDS011;10974;51.034;3.744;2023-07-29T07:08:46;2.75;;;2.15;;
21624;SDS011;10974;51.034;3.744;2023-07-29T07:11:12;1.80;;;1.70;;
21624;SDS011;10974;51.034;3.744;2023-07-29T07:13:38;3.00;;;2.40;;
21624;SDS011;10974;51.034;3.744;2023-07-29T07:16:05;2.20;;;2.00;;
21624;SDS011;10974;51.034;3.744;2023-07-29T07:18:31;2.33;;;2.13;;
21624;SDS011;10974;51.034;3.744;2023-07-29T07:20:57;2.23;;;2.03;;
21624;SDS011;10974;51.034;3.744;2023-07-29T07:23:23;2.20;;;2.00;;
21624;SDS011;10974;51.034;3.744;2023-07-29T07:25:50;3.43;;;1.73;;
21624;SDS011;10974;51.034;3.744;2023-07-29T07:28:16;3.33;;;2.00;;
21624;SDS011;10974;51.034;3.744;2023-07-29T07:30:42;2.63;;;2.27;;
21624;SDS011;10974;51.034;3.744;2023-07-29T07:33:08;4.30;;;1.83;;
21624;SDS011;10974;51.034;3.744;2023-07-29T07:35:34;2.17;;;1.97;;
21624;SDS011;10974;51.034;3.744;2023-07-29T07:38:00;1.70;;;1.60;;
21624;SDS011;10974;51.034;3.744;2023-07-29T07:40:28;2.00;;;1.53;;
21624;SDS011;10974;51.034;3.744;2023-07-29T07:42:54;3.57;;;2.07;;
21624;SDS011;10974;51.034;3.744;2023-07-29T07:45:20;4.10;;;1.80;;
21624;SDS011;10974;51.034;3.744;2023-07-29T07:47:47;2.57;;;2.23;;
21624;SDS011;10974;51.034;3.744;2023-07-29T07:50:13;1.80;;;1.70;;
21624;SDS011;10974;51.034;3.744;2023-07-29T07:52:39;3.53;;;1.70;;
21624;SDS011;10974;51.034;3.744;2023-07-29T07:55:05;2.23;;;1.93;;
21624;SDS011;10974;51.034;3.744;2023-07-29T07:57:31;2.67;;;1.90;;
21624;SDS011;10974;51.034;3.744;2023-07-29T07:59:57;1.83;;;1.63;;
21624;SDS011;10974;51.034;3.744;2023-07-29T08:02:23;2.07;;;1.87;;
21624;SDS011;10974;51.034;3.744;2023-07-29T08:04:49;1.97;;;1.70;;
21624;SDS011;10974;51.034;3.744;2023-07-29T08:07:15;2.90;;;1.60;;
21624;SDS011;10974;51.034;3.744;2023-07-29T08:09:41;1.60;;;1.50;;
21624;SDS011;10974;51.034;3.744;2023-07-29T08:12:07;1.70;;;1.53;;
21624;SDS011;10974;51.034;3.744;2023-07-29T08:14:34;4.27;;;1.90;;
21624;SDS011;10974;51.034;3.744;2023-07-29T08:17:00;2.40;;;1.60;;
21624;SDS011;10974;51.034;3.744;2023-07-29T08:19:26;2.50;;;2.23;;
21624;SDS011;10974;51.034;3.744;2023-07-29T08:21:52;2.30;;;2.00;;
21624;SDS011;10974;51.034;3.744;2023-07-29T08:24:19;2.17;;;1.90;;
21624;SDS011;10974;51.034;3.744;2023-07-29T08:26:45;2.73;;;2.50;;
21624;SDS011;10974;51.034;3.744;2023-07-29T08:29:11;2.20;;;2.00;;
21624;SDS011;10974;51.034;3.744;2023-07-29T08:31:37;3.00;;;2.10;;
21624;SDS011;10974;51.034;3.744;2023-07-29T08:34:03;2.00;;;1.73;;
21624;SDS011;10974;51.034;3.744;2023-07-29T08:36:29;2.97;;;2.00;;
21624;SDS011;10974;51.034;3.744;2023-07-29T08:38:55;2.13;;;1.83;;
21624;SDS011;10974;51.034;3.744;2023-07-29T08:44:06;2.83;;;2.00;;
21624;SDS011;10974;51.034;3.744;2023-07-29T08:46:35;3.20;;;2.20;;
21624;SDS011;10974;51.034;3.744;2023-07-29T08:49:02;2.90;;;2.20;;
21624;SDS011;10974;51.034;3.744;2023-07-29T08:51:28;3.03;;;2.10;;
21624;SDS011;10974;51.034;3.744;2023-07-29T08:53:55;2.97;;;2.63;;
21624;SDS011;10974;51.034;3.744;2023-07-29T08:56:21;4.07;;;2.20;;
21624;SDS011;10974;51.034;3.744;2023-07-29T08:58:47;3.00;;;2.40;;
21624;SDS011;10974;51.034;3.744;2023-07-29T09:01:14;3.70;;;2.60;;
21624;SDS011;10974;51.034;3.744;2023-07-29T09:03:41;3.60;;;2.70;;
21624;SDS011;10974;51.034;3.744;2023-07-29T09:06:07;2.70;;;2.40;;
21624;SDS011;10974;51.034;3.744;2023-07-29T09:08:33;4.00;;;2.10;;
21624;SDS011;10974;51.034;3.744;2023-07-29T09:11:00;2.70;;;2.33;;
21624;SDS011;10974;51.034;3.744;2023-07-29T09:13:27;3.43;;;1.93;;
21624;SDS011;10974;51.034;3.744;2023-07-29T09:15:54;3.63;;;2.23;;
21624;SDS011;10974;51.034;3.744;2023-07-29T09:18:25;2.20;;;1.80;;
21624;SDS011;10974;51.034;3.744;2023-07-29T09:20:52;4.80;;;2.70;;
21624;SDS011;10974;51.034;3.744;2023-07-29T09:23:18;4.27;;;2.10;;
21624;SDS011;10974;51.034;3.744;2023-07-29T09:25:47;2.83;;;1.97;;
21624;SDS011;10974;51.034;3.744;2023-07-29T09:28:14;2.20;;;2.00;;
21624;SDS011;10974;51.034;3.744;2023-07-29T09:30:41;2.27;;;2.07;;
21624;SDS011;10974;51.034;3.744;2023-07-29T09:33:08;2.20;;;2.00;;
21624;SDS011;10974;51.034;3.744;2023-07-29T09:35:35;8.93;;;2.20;;
21624;SDS011;10974;51.034;3.744;2023-07-29T09:38:02;3.40;;;2.10;;
21624;SDS011;10974;51.034;3.744;2023-07-29T09:40:35;2.50;;;1.87;;
21624;SDS011;10974;51.034;3.744;2023-07-29T09:43:02;2.67;;;2.03;;
21624;SDS011;10974;51.034;3.744;2023-07-29T09:45:29;2.70;;;2.50;;
21624;SDS011;10974;51.034;3.744;2023-07-29T09:47:56;2.40;;;2.20;;
21624;SDS011;10974;51.034;3.744;2023-07-29T09:50:23;3.20;;;2.40;;
21624;SDS011;10974;51.034;3.744;2023-07-29T09:52:50;3.27;;;2.00;;
21624;SDS011;10974;51.034;3.744;2023-07-29T09:55:20;2.37;;;2.13;;
21624;SDS011;10974;51.034;3.744;2023-07-29T09:57:47;2.23;;;1.90;;
21624;SDS011;10974;51.034;3.744;2023-07-29T10:00:13;3.80;;;2.07;;
21624;SDS011;10974;51.034;3.744;2023-07-29T10:02:42;2.60;;;2.17;;
21624;SDS011;10974;51.034;3.744;2023-07-29T10:05:09;2.37;;;1.87;;
21624;SDS011;10974;51.034;3.744;2023-07-29T10:07:38;3.37;;;2.23;;
21624;SDS011;10974;51.034;3.744;2023-07-29T10:10:05;1.70;;;1.20;;
21624;SDS011;10974;51.034;3.744;2023-07-29T10:12:31;2.17;;;1.30;;
21624;SDS011;10974;51.034;3.744;2023-07-29T10:15:02;1.50;;;1.40;;
21624;SDS011;10974;51.034;3.744;2023-07-29T10:17:29;3.23;;;1.63;;
21624;SDS011;10974;51.034;3.744;2023-07-29T10:19:56;2.83;;;1.40;;
21624;SDS011;10974;51.034;3.744;2023-07-29T10:22:24;1.30;;;1.20;;
21624;SDS011;10974;51.034;3.744;2023-07-29T10:24:51;1.00;;;1.00;;
21624;SDS011;10974;51.034;3.744;2023-07-29T10:27:19;1.30;;;1.20;;
21624;SDS011;10974;51.034;3.744;2023-07-29T10:29:46;1.10;;;1.00;;
21624;SDS011;10974;51.034;3.744;2023-07-29T10:32:12;1.70;;;1.60;;
21624;SDS011;10974;51.034;3.744;2023-07-29T10:34:39;1.97;;;1.67;;
21624;SDS011;10974;51.034;3.744;2023-07-29T10:37:06;1.40;;;1.30;;
21624;SDS011;10974;51.034;3.744;2023-07-29T10:39:40;1.27;;;1.17;;
21624;SDS011;10974;51.034;3.744;2023-07-29T10:42:07;1.80;;;1.10;;
21624;SDS011;10974;51.034;3.744;2023-07-29T10:49:40;2.10;;;1.20;;
21624;SDS011;10974;51.034;3.744;2023-07-29T10:52:06;1.10;;;1.00;;
21624;SDS011;10974;51.034;3.744;2023-07-29T10:54:42;0.90;;;0.90;;
21624;SDS011;10974;51.034;3.744;2023-07-29T10:57:12;0.90;;;0.90;;
21624;SDS011;10974;51.034;3.744;2023-07-29T10:59:39;1.10;;;1.00;;
21624;SDS011;10974;51.034;3.744;2023-07-29T11:02:11;1.00;;;0.90;;
21624;SDS011;10974;51.034;3.744;2023-07-29T11:04:48;2.20;;;1.50;;
21624;SDS011;10974;51.034;3.744;2023-07-29T11:09:51;1.40;;;1.30;;
21624;SDS011;10974;51.034;3.744;2023-07-29T11:17:41;1.57;;;1.00;;
21624;SDS011;10974;51.034;3.744;2023-07-29T11:20:07;1.10;;;1.10;;
21624;SDS011;10974;51.034;3.744;2023-07-29T11:22:34;1.00;;;1.00;;
21624;SDS011;10974;51.034;3.744;2023-07-29T11:25:00;1.20;;;1.00;;
21624;SDS011;10974;51.034;3.744;2023-07-29T11:27:26;1.87;;;1.23;;
21624;SDS011;10974;51.034;3.744;2023-07-29T11:29:59;1.57;;;1.30;;
21624;SDS011;10974;51.034;3.744;2023-07-29T11:32:25;1.17;;;1.07;;
21624;SDS011;10974;51.034;3.744;2023-07-29T11:34:51;0.90;;;0.90;;
21624;SDS011;10974;51.034;3.744;2023-07-29T11:37:17;1.67;;;1.20;;
21624;SDS011;10974;51.034;3.744;2023-07-29T11:39:45;9.23;;;1.53;;
21624;SDS011;10974;51.034;3.744;2023-07-29T11:42:12;1.53;;;1.20;;
21624;SDS011;10974;51.034;3.744;2023-07-29T11:44:38;1.60;;;1.20;;
21624;SDS011;10974;51.034;3.744;2023-07-29T11:47:07;2.30;;;1.10;;
21624;SDS011;10974;51.034;3.744;2023-07-29T11:49:38;1.30;;;1.10;;
21624;SDS011;10974;51.034;3.744;2023-07-29T11:52:05;1.10;;;1.10;;
21624;SDS011;10974;51.034;3.744;2023-07-29T11:54:31;1.17;;;1.07;;
21624;SDS011;10974;51.034;3.744;2023-07-29T11:56:57;1.70;;;1.20;;
21624;SDS011;10974;51.034;3.744;2023-07-29T11:59:24;1.57;;;1.10;;
21624;SDS011;10974;51.034;3.744;2023-07-29T12:01:50;1.70;;;1.60;;
21624;SDS011;10974;51.034;3.744;2023-07-29T12:04:16;2.13;;;1.70;;
21624;SDS011;10974;51.034;3.744;2023-07-29T12:06:42;1.30;;;1.20;;
21624;SDS011;10974;51.034;3.744;2023-07-29T12:09:08;1.10;;;1.00;;
21624;SDS011;10974;51.034;3.744;2023-07-29T12:11:34;1.03;;;1.03;;
21624;SDS011;10974;51.034;3.744;2023-07-29T12:14:01;1.10;;;1.00;;
21624;SDS011;10974;51.034;3.744;2023-07-29T12:16:27;1.13;;;1.03;;
21624;SDS011;10974;51.034;3.744;2023-07-29T12:19:00;1.93;;;1.50;;
21624;SDS011;10974;51.034;3.744;2023-07-29T12:21:26;1.00;;;1.00;;
21624;SDS011;10974;51.034;3.744;2023-07-29T12:23:52;1.10;;;1.00;;
21624;SDS011;10974;51.034;3.744;2023-07-29T12:26:18;1.03;;;1.00;;
21624;SDS011;10974;51.034;3.744;2023-07-29T12:28:47;1.03;;;1.00;;
21624;SDS011;10974;51.034;3.744;2023-07-29T12:31:13;1.73;;;1.47;;
21624;SDS011;10974;51.034;3.744;2023-07-29T12:33:39;1.83;;;1.33;;
21624;SDS011;10974;51.034;3.744;2023-07-29T12:36:07;1.43;;;1.30;;
21624;SDS011;10974;51.034;3.744;2023-07-29T12:38:33;1.53;;;1.10;;
21624;SDS011;10974;51.034;3.744;2023-07-29T12:40:59;1.37;;;1.27;;
21624;SDS011;10974;51.034;3.744;2023-07-29T12:43:25;1.03;;;0.97;;
21624;SDS011;10974;51.034;3.744;2023-07-29T12:45:52;1.00;;;1.00;;
21624;SDS011;10974;51.034;3.744;2023-07-29T12:48:18;0.97;;;0.97;;
21624;SDS011;10974;51.034;3.744;2023-07-29T12:50:44;1.00;;;0.83;;
21624;SDS011;10974;51.034;3.744;2023-07-29T12:53:10;1.97;;;1.20;;
21624;SDS011;10974;51.034;3.744;2023-07-29T12:55:36;1.20;;;1.10;;
21624;SDS011;10974;51.034;3.744;2023-07-29T12:58:02;1.33;;;1.23;;
21624;SDS011;10974;51.034;3.744;2023-07-29T13:00:29;1.50;;;1.40;;
21624;SDS011;10974;51.034;3.744;2023-07-29T13:02:55;1.30;;;1.20;;
21624;SDS011;10974;51.034;3.744;2023-07-29T13:05:21;1.27;;;1.17;;
21624;SDS011;10974;51.034;3.744;2023-07-29T13:07:47;1.97;;;1.40;;
21624;SDS011;10974;51.034;3.744;2023-07-29T13:10:13;1.33;;;1.23;;
21624;SDS011;10974;51.034;3.744;2023-07-29T13:12:40;3.00;;;1.57;;
21624;SDS011;10974;51.034;3.744;2023-07-29T13:15:06;2.67;;;1.43;;
21624;SDS011;10974;51.034;3.744;2023-07-29T13:17:33;2.10;;;1.60;;
21624;SDS011;10974;51.034;3.744;2023-07-29T13:19:59;1.17;;;1.07;;
21624;SDS011;10974;51.034;3.744;2023-07-29T13:22:25;1.20;;;1.10;;
21624;SDS011;10974;51.034;3.744;2023-07-29T13:24:51;1.10;;;1.00;;
21624;SDS011;10974;51.034;3.744;2023-07-29T13:27:17;1.27;;;1.17;;
21624;SDS011;10974;51.034;3.744;2023-07-29T13:29:43;1.80;;;1.57;;
21624;SDS011;10974;51.034;3.744;2023-07-29T13:32:09;1.37;;;1.27;;
21624;SDS011;10974;51.034;3.744;2023-07-29T13:34:35;1.40;;;1.30;;
21624;SDS011;10974;51.034;3.744;2023-07-29T13:37:01;1.20;;;1.10;;
21624;SDS011;10974;51.034;3.744;2023-07-29T13:39:27;0.90;;;0.90;;
21624;SDS011;10974;51.034;3.744;2023-07-29T13:41:54;1.10;;;1.10;;
21624;SDS011;10974;51.034;3.744;2023-07-29T13:44:20;1.43;;;1.10;;
21624;SDS011;10974;51.034;3.744;2023-07-29T13:46:46;1.43;;;1.10;;
21624;SDS011;10974;51.034;3.744;2023-07-29T13:49:12;2.50;;;1.10;;
21624;SDS011;10974;51.034;3.744;2023-07-29T13:51:38;3.47;;;1.20;;
21624;SDS011;10974;51.034;3.744;2023-07-29T13:54:04;1.13;;;1.00;;
21624;SDS011;10974;51.034;3.744;2023-07-29T13:56:30;0.80;;;0.80;;
21624;SDS011;10974;51.034;3.744;2023-07-29T13:58:56;0.80;;;0.80;;
21624;SDS011;10974;51.034;3.744;2023-07-29T14:01:22;1.60;;;1.10;;
21624;SDS011;10974;51.034;3.744;2023-07-29T14:03:48;0.80;;;0.80;;
21624;SDS011;10974;51.034;3.744;2023-07-29T14:06:15;1.27;;;1.17;;
21624;SDS011;10974;51.034;3.744;2023-07-29T14:08:41;1.20;;;1.10;;
21624;SDS011;10974;51.034;3.744;2023-07-29T14:11:07;0.90;;;0.90;;
21624;SDS011;10974;51.034;3.744;2023-07-29T14:13:33;2.00;;;0.87;;
21624;SDS011;10974;51.034;3.744;2023-07-29T14:16:02;0.87;;;0.87;;
21624;SDS011;10974;51.034;3.744;2023-07-29T14:18:29;0.90;;;0.90;;
21624;SDS011;10974;51.034;3.744;2023-07-29T14:20:55;0.90;;;0.90;;
21624;SDS011;10974;51.034;3.744;2023-07-29T14:23:21;0.87;;;0.87;;
21624;SDS011;10974;51.034;3.744;2023-07-29T14:25:47;1.73;;;1.17;;
21624;SDS011;10974;51.034;3.744;2023-07-29T14:28:13;1.20;;;1.00;;
21624;SDS011;10974;51.034;3.744;2023-07-29T14:30:39;1.13;;;1.00;;
21624;SDS011;10974;51.034;3.744;2023-07-29T14:33:06;1.10;;;1.00;;
21624;SDS011;10974;51.034;3.744;2023-07-29T14:35:32;1.30;;;1.10;;
21624;SDS011;10974;51.034;3.744;2023-07-29T14:37:58;0.90;;;0.90;;
21624;SDS011;10974;51.034;3.744;2023-07-29T14:40:24;0.93;;;0.77;;
21624;SDS011;10974;51.034;3.744;2023-07-29T14:42:50;0.93;;;0.90;;
21624;SDS011;10974;51.034;3.744;2023-07-29T14:45:16;0.83;;;0.83;;
21624;SDS011;10974;51.034;3.744;2023-07-29T14:47:42;1.20;;;1.10;;
21624;SDS011;10974;51.034;3.744;2023-07-29T14:50:08;1.50;;;0.80;;
21624;SDS011;10974;51.034;3.744;2023-07-29T14:52:34;0.80;;;0.80;;
21624;SDS011;10974;51.034;3.744;2023-07-29T14:55:00;2.13;;;1.00;;
21624;SDS011;10974;51.034;3.744;2023-07-29T14:57:26;1.00;;;1.00;;
21624;SDS011;10974;51.034;3.744;2023-07-29T14:59:52;0.80;;;0.80;;
21624;SDS011;10974;51.034;3.744;2023-07-29T15:02:18;1.53;;;1.00;;
21624;SDS011;10974;51.034;3.744;2023-07-29T15:04:44;0.70;;;0.70;;
21624;SDS011;10974;51.034;3.744;2023-07-29T15:07:10;2.17;;;1.10;;
21624;SDS011;10974;51.034;3.744;2023-07-29T15:09:36;1.10;;;1.00;;
21624;SDS011;10974;51.034;3.744;2023-07-29T15:12:03;0.73;;;0.73;;
21624;SDS011;10974;51.034;3.744;2023-07-29T15:14:29;0.80;;;0.80;;
21624;SDS011;10974;51.034;3.744;2023-07-29T15:16:55;1.30;;;0.80;;
21624;SDS011;10974;51.034;3.744;2023-07-29T15:19:21;1.30;;;1.07;;
21624;SDS011;10974;51.034;3.744;2023-07-29T15:21:47;1.50;;;1.40;;
21624;SDS011;10974;51.034;3.744;2023-07-29T15:24:13;4.70;;;1.10;;
21624;SDS011;10974;51.034;3.744;2023-07-29T15:26:40;1.23;;;0.83;;
21624;SDS011;10974;51.034;3.744;2023-07-29T15:29:06;1.00;;;0.90;;
21624;SDS011;10974;51.034;3.744;2023-07-29T15:31:33;1.63;;;1.30;;
21624;SDS011;10974;51.034;3.744;2023-07-29T15:33:59;2.10;;;1.33;;
21624;SDS011;10974;51.034;3.744;2023-07-29T15:36:25;2.40;;;1.50;;
21624;SDS011;10974;51.034;3.744;2023-07-29T15:38:51;2.17;;;1.60;;
21624;SDS011;10974;51.034;3.744;2023-07-29T15:41:17;4.40;;;1.60;;
21624;SDS011;10974;51.034;3.744;2023-07-29T15:43:43;2.20;;;1.90;;
21624;SDS011;10974;51.034;3.744;2023-07-29T15:46:09;4.80;;;2.00;;
21624;SDS011;10974;51.034;3.744;2023-07-29T15:48:35;2.73;;;1.60;;
21624;SDS011;10974;51.034;3.744;2023-07-29T15:51:02;3.37;;;2.40;;
21624;SDS011;10974;51.034;3.744;2023-07-29T15:53:28;2.77;;;2.00;;
21624;SDS011;10974;51.034;3.744;2023-07-29T15:55:54;3.77;;;1.90;;
21624;SDS011;10974;51.034;3.744;2023-07-29T15:58:20;2.50;;;1.70;;
21624;SDS011;10974;51.034;3.744;2023-07-29T16:00:47;2.90;;;2.20;;
21624;SDS011;10974;51.034;3.744;2023-07-29T16:03:13;3.33;;;2.00;;
21624;SDS011;10974;51.034;3.744;2023-07-29T16:05:38;4.20;;;2.20;;
21624;SDS011;10974;51.034;3.744;2023-07-29T16:08:05;3.80;;;2.43;;
21624;SDS011;10974;51.034;3.744;2023-07-29T16:10:31;4.83;;;2.30;;
21624;SDS011;10974;51.034;3.744;2023-07-29T16:12:57;7.00;;;2.80;;
21624;SDS011;10974;51.034;3.744;2023-07-29T16:15:23;4.40;;;2.47;;
21624;SDS011;10974;51.034;3.744;2023-07-29T16:17:49;3.83;;;2.30;;
21624;SDS011;10974;51.034;3.744;2023-07-29T16:20:18;4.83;;;2.70;;
21624;SDS011;10974;51.034;3.744;2023-07-29T16:22:44;4.53;;;2.33;;
21624;SDS011;10974;51.034;3.744;2023-07-29T16:25:10;9.57;;;4.23;;
21624;SDS011;10974;51.034;3.744;2023-07-29T16:27:36;4.60;;;1.97;;
21624;SDS011;10974;51.034;3.744;2023-07-29T16:30:03;3.20;;;2.17;;
21624;SDS011;10974;51.034;3.744;2023-07-29T16:32:30;4.60;;;1.77;;
21624;SDS011;10974;51.034;3.744;2023-07-29T16:34:56;3.30;;;2.17;;
21624;SDS011;10974;51.034;3.744;2023-07-29T16:37:22;2.90;;;2.10;;
21624;SDS011;10974;51.034;3.744;2023-07-29T16:39:48;4.70;;;2.40;;
21624;SDS011;10974;51.034;3.744;2023-07-29T16:42:14;6.50;;;2.63;;
21624;SDS011;10974;51.034;3.744;2023-07-29T16:44:40;6.97;;;2.97;;
21624;SDS011;10974;51.034;3.744;2023-07-29T16:47:06;4.43;;;2.20;;
21624;SDS011;10974;51.034;3.744;2023-07-29T16:49:32;8.63;;;2.70;;
21624;SDS011;10974;51.034;3.744;2023-07-29T16:51:58;4.33;;;2.13;;
21624;SDS011;10974;51.034;3.744;2023-07-29T16:54:25;3.97;;;1.90;;
21624;SDS011;10974;51.034;3.744;2023-07-29T16:56:51;2.20;;;2.00;;
21624;SDS011;10974;51.034;3.744;2023-07-29T16:59:17;5.73;;;2.10;;
21624;SDS011;10974;51.034;3.744;2023-07-29T17:01:43;4.00;;;1.93;;
21624;SDS011;10974;51.034;3.744;2023-07-29T17:04:09;3.40;;;1.80;;
21624;SDS011;10974;51.034;3.744;2023-07-29T17:06:35;4.30;;;2.10;;
21624;SDS011;10974;51.034;3.744;2023-07-29T17:09:01;5.40;;;2.10;;
21624;SDS011;10974;51.034;3.744;2023-07-29T17:11:27;4.33;;;2.10;;
21624;SDS011;10974;51.034;3.744;2023-07-29T17:13:53;6.37;;;2.10;;
21624;SDS011;10974;51.034;3.744;2023-07-29T17:16:19;4.50;;;2.40;;
21624;SDS011;10974;51.034;3.744;2023-07-29T17:18:45;4.27;;;2.03;;
21624;SDS011;10974;51.034;3.744;2023-07-29T17:21:11;4.57;;;2.10;;
21624;SDS011;10974;51.034;3.744;2023-07-29T17:23:37;5.53;;;2.80;;
21624;SDS011;10974;51.034;3.744;2023-07-29T17:26:03;3.73;;;2.50;;
21624;SDS011;10974;51.034;3.744;2023-07-29T17:28:29;4.17;;;2.17;;
21624;SDS011;10974;51.034;3.744;2023-07-29T17:30:55;3.17;;;2.00;;
21624;SDS011;10974;51.034;3.744;2023-07-29T17:33:21;3.83;;;2.20;;
21624;SDS011;10974;51.034;3.744;2023-07-29T17:35:47;8.27;;;2.10;;
21624;SDS011;10974;51.034;3.744;2023-07-29T17:38:15;4.10;;;2.03;;
21624;SDS011;10974;51.034;3.744;2023-07-29T17:40:41;3.90;;;2.00;;
21624;SDS011;10974;51.034;3.744;2023-07-29T17:43:07;4.60;;;2.00;;
21624;SDS011;10974;51.034;3.744;2023-07-29T17:45:33;5.70;;;2.13;;
21624;SDS011;10974;51.034;3.744;2023-07-29T17:47:59;2.50;;;1.77;;
21624;SDS011;10974;51.034;3.744;2023-07-29T17:50:25;6.03;;;2.10;;
21624;SDS011;10974;51.034;3.744;2023-07-29T17:52:52;6.17;;;1.93;;
21624;SDS011;10974;51.034;3.744;2023-07-29T17:55:20;4.87;;;3.00;;
21624;SDS011;10974;51.034;3.744;2023-07-29T17:57:46;2.80;;;1.83;;
21624;SDS011;10974;51.034;3.744;2023-07-29T18:00:12;3.10;;;1.90;;
21624;SDS011;10974;51.034;3.744;2023-07-29T18:02:38;4.23;;;2.23;;
21624;SDS011;10974;51.034;3.744;2023-07-29T18:05:04;4.20;;;1.97;;
21624;SDS011;10974;51.034;3.744;2023-07-29T18:07:31;2.93;;;1.90;;
21624;SDS011;10974;51.034;3.744;2023-07-29T18:09:57;4.13;;;1.90;;
21624;SDS011;10974;51.034;3.744;2023-07-29T18:12:23;3.50;;;2.23;;
21624;SDS011;10974;51.034;3.744;2023-07-29T18:14:49;4.70;;;2.17;;
21624;SDS011;10974;51.034;3.744;2023-07-29T18:17:15;4.33;;;2.03;;
21624;SDS011;10974;51.034;3.744;2023-07-29T18:19:41;6.50;;;2.33;;
21624;SDS011;10974;51.034;3.744;2023-07-29T18:22:09;4.10;;;2.10;;
21624;SDS011;10974;51.034;3.744;2023-07-29T18:24:35;3.10;;;1.83;;
21624;SDS011;10974;51.034;3.744;2023-07-29T18:27:01;5.67;;;2.50;;
21624;SDS011;10974;51.034;3.744;2023-07-29T18:29:27;3.40;;;2.03;;
21624;SDS011;10974;51.034;3.744;2023-07-29T18:31:53;3.30;;;2.13;;
21624;SDS011;10974;51.034;3.744;2023-07-29T18:34:21;5.97;;;2.07;;
21624;SDS011;10974;51.034;3.744;2023-07-29T18:36:48;5.77;;;2.43;;